Time;durP1;ratioP1;P1;durP2;ratioP2;P2;SDS_P1;SDS_P2;PMS_P1;PMS_P2;Temp;Humidity;BMP_temperature;BMP_pressure;BME280_temperature;BME280_humidity;BME280_pressure;Samples;Min_cycle;Max_cycle;Signal;HPM_P1;HPM_P2
2024/03/05 00:02:03;;;;;;;20.55;13.88;;;10.20;96.60;;;;;;6240776;23;20035;-70
2024/03/05 00:04:49;;;;;;;25.83;17.15;;;10.10;96.50;;;;;;6240007;23;20449;-71
2024/03/05 00:07:38;;;;;;;21.38;15.32;;;10.10;96.50;;;;;;6239780;23;20090;-70
2024/03/05 00:10:24;;;;;;;25.77;16.42;;;10.00;96.60;;;;;;6242696;23;20046;-71
2024/03/05 00:13:10;;;;;;;30.25;17.08;;;9.90;96.40;;;;;;6241146;23;20012;-70
2024/03/05 00:15:57;;;;;;;24.98;16.08;;;9.90;96.50;;;;;;6241050;23;20008;-71
2024/03/05 00:18:43;;;;;;;22.08;14.10;;;9.90;96.50;;;;;;6244285;23;20008;-70
2024/03/05 00:21:28;;;;;;;21.23;14.32;;;9.80;96.40;;;;;;6244251;23;20012;-70
2024/03/05 00:24:14;;;;;;;21.65;15.20;;;9.80;96.30;;;;;;6240752;23;20095;-70
2024/03/05 00:27:00;;;;;;;22.90;15.15;;;9.80;96.20;;;;;;6239977;23;20010;-70
2024/03/05 00:29:47;;;;;;;21.27;15.50;;;9.70;96.10;;;;;;6241978;23;20015;-69
2024/03/05 00:32:34;;;;;;;24.52;16.08;;;9.70;96.00;;;;;;6241886;23;20019;-69
2024/03/05 00:35:20;;;;;;;25.77;14.68;;;9.60;96.00;;;;;;6241036;23;20376;-70
2024/03/05 00:38:06;;;;;;;20.85;14.68;;;9.60;96.00;;;;;;6241192;23;20004;-60
2024/03/05 00:40:52;;;;;;;19.83;14.32;;;9.60;95.90;;;;;;6241952;23;20019;-59
2024/03/05 00:43:38;;;;;;;20.15;13.75;;;9.50;95.90;;;;;;6239889;23;20026;-59
2024/03/05 00:46:24;;;;;;;24.85;15.40;;;9.50;95.90;;;;;;6240424;23;20333;-59
2024/03/05 00:49:10;;;;;;;19.48;13.57;;;9.50;95.90;;;;;;6240076;23;20062;-59
2024/03/05 00:51:56;;;;;;;22.80;13.90;;;9.50;95.80;;;;;;6242318;23;20009;-59
2024/03/05 00:54:42;;;;;;;21.35;14.07;;;9.50;95.70;;;;;;6240684;23;20012;-59
2024/03/05 00:57:28;;;;;;;20.48;14.95;;;9.50;95.70;;;;;;6241839;23;20004;-59
2024/03/05 01:00:15;;;;;;;18.88;14.02;;;9.40;95.50;;;;;;6243381;23;20030;-59
2024/03/05 01:03:01;;;;;;;18.05;12.75;;;9.40;95.60;;;;;;6241484;23;20408;-60
2024/03/05 01:05:47;;;;;;;20.23;12.77;;;9.40;95.60;;;;;;6238585;23;20016;-60
2024/03/05 01:08:32;;;;;;;19.88;13.30;;;9.40;95.40;;;;;;6239618;23;20040;-60
2024/03/05 01:11:18;;;;;;;22.00;13.95;;;9.30;95.30;;;;;;6241186;23;20349;-60
2024/03/05 01:14:04;;;;;;;22.80;12.93;;;9.20;95.00;;;;;;6220655;23;20008;-60
2024/03/05 01:16:50;;;;;;;20.45;13.77;;;9.10;95.10;;;;;;6240043;23;20499;-59
2024/03/05 01:19:36;;;;;;;22.73;13.98;;;9.10;95.10;;;;;;6240892;23;20032;-59
2024/03/05 01:22:22;;;;;;;21.63;13.43;;;9.10;95.10;;;;;;6240330;23;20023;-59
2024/03/05 01:25:10;;;;;;;22.63;15.25;;;9.10;95.00;;;;;;6240960;23;20069;-59
2024/03/05 01:27:57;;;;;;;24.23;15.00;;;9.00;95.00;;;;;;6242853;23;20018;-59
2024/03/05 01:30:43;;;;;;;25.13;15.60;;;8.90;95.00;;;;;;6241272;23;20011;-59
2024/03/05 01:33:29;;;;;;;21.40;13.80;;;8.90;95.00;;;;;;6243389;23;20087;-59
2024/03/05 01:36:17;;;;;;;20.67;13.77;;;8.90;95.10;;;;;;6241423;23;20404;-59
2024/03/05 01:39:04;;;;;;;18.70;12.93;;;8.90;95.10;;;;;;6241850;23;20452;-59
2024/03/05 01:41:50;;;;;;;19.65;14.25;;;8.90;95.20;;;;;;6238329;23;20039;-59
2024/03/05 01:44:37;;;;;;;22.70;15.07;;;8.80;95.10;;;;;;6242083;23;20070;-59
2024/03/05 01:47:27;;;;;;;21.20;13.05;;;8.80;95.10;;;;;;6243853;23;20016;-59
2024/03/05 01:50:13;;;;;;;20.17;13.05;;;8.70;95.10;;;;;;6243181;23;20390;-60
2024/03/05 01:52:59;;;;;;;21.55;13.77;;;8.70;95.20;;;;;;6243230;23;20459;-59
2024/03/05 01:55:46;;;;;;;24.02;14.40;;;8.70;95.20;;;;;;6244911;23;20051;-59
2024/03/05 01:58:32;;;;;;;21.50;13.50;;;8.60;95.20;;;;;;6242191;23;20089;-60
2024/03/05 02:01:18;;;;;;;21.73;13.70;;;8.60;95.30;;;;;;6243529;23;20008;-59
2024/03/05 02:04:04;;;;;;;21.48;13.63;;;8.50;95.20;;;;;;6243798;23;20016;-63
2024/03/05 02:06:52;;;;;;;24.45;15.32;;;8.50;95.30;;;;;;6245068;23;20012;-63
2024/03/05 02:09:38;;;;;;;25.35;15.98;;;8.50;95.40;;;;;;6244895;23;20432;-64
2024/03/05 02:12:24;;;;;;;23.05;14.00;;;8.40;95.60;;;;;;6242775;23;20020;-65
2024/03/05 02:15:11;;;;;;;26.00;15.45;;;8.40;95.50;;;;;;6245400;23;20073;-64
2024/03/05 02:17:57;;;;;;;23.75;13.52;;;8.40;95.60;;;;;;6242220;23;20408;-64
2024/03/05 02:20:43;;;;;;;22.25;14.30;;;8.40;95.60;;;;;;6245389;23;20008;-64
2024/03/05 02:23:29;;;;;;;20.67;14.85;;;8.50;95.60;;;;;;6243478;23;20020;-64
2024/03/05 02:26:20;;;;;;;21.95;13.95;;;8.50;95.60;;;;;;6243469;23;20008;-65
2024/03/05 02:29:09;;;;;;;24.73;15.23;;;8.50;95.60;;;;;;6244197;23;20012;-63
2024/03/05 02:31:55;;;;;;;18.73;13.00;;;8.40;95.60;;;;;;6242961;23;20039;-65
2024/03/05 02:34:41;;;;;;;23.73;14.25;;;8.40;95.70;;;;;;6241316;23;20027;-65
2024/03/05 02:37:27;;;;;;;20.88;14.05;;;8.40;95.60;;;;;;6244325;23;20012;-65
2024/03/05 02:40:15;;;;;;;23.80;14.52;;;8.40;95.60;;;;;;6245309;23;20008;-65
2024/03/05 02:43:01;;;;;;;22.95;13.38;;;8.30;95.60;;;;;;6243762;23;20020;-65
2024/03/05 02:45:47;;;;;;;22.15;14.45;;;8.30;95.70;;;;;;6243040;23;20008;-65
2024/03/05 02:48:33;;;;;;;19.98;14.48;;;8.20;95.70;;;;;;6244526;23;20019;-65
2024/03/05 02:51:19;;;;;;;21.27;14.27;;;8.20;95.80;;;;;;6242585;23;20008;-65
2024/03/05 02:54:06;;;;;;;21.75;15.00;;;8.10;95.80;;;;;;6244014;23;20441;-65
2024/03/05 02:56:52;;;;;;;28.35;14.98;;;8.00;96.10;;;;;;6243974;23;20066;-65
2024/03/05 02:59:38;;;;;;;22.95;14.85;;;7.90;95.90;;;;;;6244755;23;20040;-64
2024/03/05 03:02:24;;;;;;;22.90;14.73;;;7.90;96.00;;;;;;6243294;23;20031;-64
2024/03/05 03:05:12;;;;;;;27.70;14.93;;;7.80;96.00;;;;;;6241954;23;20099;-64
2024/03/05 03:07:58;;;;;;;21.70;14.38;;;7.70;96.10;;;;;;6241502;23;20051;-64
2024/03/05 03:10:44;;;;;;;21.38;14.32;;;7.70;96.20;;;;;;6242213;23;20500;-63
2024/03/05 03:13:31;;;;;;;22.60;15.13;;;7.60;96.30;;;;;;6242231;23;20086;-64
2024/03/05 03:16:17;;;;;;;22.50;14.60;;;7.60;96.40;;;;;;6244238;23;20016;-63
2024/03/05 03:19:04;;;;;;;22.92;14.82;;;7.50;96.40;;;;;;6242514;23;20036;-64
2024/03/05 03:21:51;;;;;;;27.98;16.45;;;7.50;96.50;;;;;;6243421;23;20012;-64
2024/03/05 03:24:37;;;;;;;19.35;13.35;;;7.50;96.60;;;;;;6243483;23;20020;-64
2024/03/05 03:27:24;;;;;;;24.52;16.00;;;7.50;96.60;;;;;;6237440;23;20005;-64
2024/03/05 03:30:17;;;;;;;23.10;13.05;;;7.40;96.70;;;;;;6244450;23;20039;-63
2024/03/05 03:33:04;;;;;;;19.63;13.88;;;7.40;96.70;;;;;;6242218;23;20000;-64
2024/03/05 03:35:51;;;;;;;24.30;15.20;;;7.30;96.80;;;;;;6242097;23;20399;-62
2024/03/05 03:38:38;;;;;;;27.25;14.45;;;7.30;96.80;;;;;;6241278;23;20004;-64
2024/03/05 03:41:24;;;;;;;22.33;14.73;;;7.30;96.90;;;;;;6243479;23;20348;-64
2024/03/05 03:44:10;;;;;;;24.75;15.45;;;7.30;97.00;;;;;;6240231;23;20399;-63
2024/03/05 03:46:56;;;;;;;21.23;14.23;;;7.20;97.00;;;;;;6243094;23;20008;-64
2024/03/05 03:49:48;;;;;;;23.88;14.73;;;7.20;97.30;;;;;;6244582;22;20479;-63
2024/03/05 03:52:34;;;;;;;23.45;13.95;;;7.10;97.20;;;;;;6240991;23;20038;-65
2024/03/05 03:55:20;;;;;;;20.02;14.65;;;7.10;97.30;;;;;;6241821;23;20020;-65
2024/03/05 03:58:07;;;;;;;21.77;13.73;;;7.10;97.30;;;;;;6242552;23;20012;-65
2024/03/05 04:00:52;;;;;;;20.60;12.75;;;7.10;97.30;;;;;;6239225;23;20043;-64
2024/03/05 04:03:39;;;;;;;19.45;12.50;;;7.10;97.30;;;;;;6240258;23;20020;-65
2024/03/05 04:06:25;;;;;;;24.30;14.02;;;7.10;97.30;;;;;;6241335;23;20106;-65
2024/03/05 04:09:13;;;;;;;21.05;14.10;;;7.10;97.40;;;;;;6243610;22;20019;-70
2024/03/05 04:11:59;;;;;;;19.45;13.45;;;7.10;97.40;;;;;;6242967;23;20103;-70
2024/03/05 04:14:45;;;;;;;20.13;12.88;;;7.10;97.40;;;;;;6244348;23;20011;-70
2024/03/05 04:17:31;;;;;;;19.35;14.27;;;7.10;97.40;;;;;;6241246;23;20330;-70
2024/03/05 04:20:17;;;;;;;19.05;12.55;;;7.00;97.40;;;;;;6240963;23;20384;-69
2024/03/05 04:23:03;;;;;;;21.65;12.50;;;6.90;97.40;;;;;;6241396;23;20016;-70
2024/03/05 04:25:50;;;;;;;20.35;13.05;;;6.90;97.50;;;;;;6241535;23;20009;-70
2024/03/05 04:28:52;;;;;;;20.80;13.88;;;6.90;97.60;;;;;;6242792;23;20074;-70
2024/03/05 04:31:39;;;;;;;27.00;14.00;;;6.70;97.70;;;;;;6240206;23;20012;-71
2024/03/05 04:34:25;;;;;;;19.27;12.35;;;6.70;97.70;;;;;;6241942;23;20123;-71
2024/03/05 04:37:11;;;;;;;25.42;14.57;;;6.70;97.70;;;;;;6238823;23;20012;-70
2024/03/05 04:39:58;;;;;;;21.65;12.43;;;6.70;97.80;;;;;;6241306;23;20007;-70
2024/03/05 04:42:45;;;;;;;17.88;12.98;;;6.60;97.80;;;;;;6243979;23;20522;-70
2024/03/05 04:45:33;;;;;;;16.88;11.55;;;6.60;97.80;;;;;;6241049;23;20008;-71
2024/03/05 04:48:19;;;;;;;19.63;13.13;;;6.60;97.80;;;;;;6241709;23;20026;-71
2024/03/05 04:51:08;;;;;;;22.27;14.38;;;6.50;97.80;;;;;;6241375;23;20095;-71
2024/03/05 04:53:54;;;;;;;18.98;12.30;;;6.50;97.90;;;;;;6242547;23;20012;-71
2024/03/05 04:56:40;;;;;;;18.75;11.77;;;6.40;98.20;;;;;;6238794;23;20433;-70
2024/03/05 04:59:26;;;;;;;17.23;12.98;;;6.40;98.00;;;;;;6240836;23;20094;-71
2024/03/05 05:02:12;;;;;;;18.23;11.35;;;6.40;98.00;;;;;;6241054;23;20035;-71
2024/03/05 05:04:58;;;;;;;17.48;11.00;;;6.40;98.00;;;;;;6241471;23;20082;-70
2024/03/05 05:07:45;;;;;;;21.35;13.30;;;6.40;98.00;;;;;;6241345;23;20394;-70
2024/03/05 05:10:31;;;;;;;21.23;12.95;;;6.40;98.00;;;;;;6241339;23;20012;-71
2024/03/05 05:13:17;;;;;;;19.67;11.45;;;6.40;98.00;;;;;;6241135;23;20448;-70
2024/03/05 05:16:05;;;;;;;19.15;12.38;;;6.40;98.00;;;;;;6240980;23;20012;-71
2024/03/05 05:18:50;;;;;;;17.42;12.38;;;6.40;97.90;;;;;;6241764;23;20451;-69
2024/03/05 05:21:36;;;;;;;18.60;12.98;;;6.30;97.90;;;;;;6243227;23;20008;-69
2024/03/05 05:24:23;;;;;;;20.45;11.52;;;6.30;98.00;;;;;;6241391;23;20023;-67
2024/03/05 05:27:09;;;;;;;24.75;13.98;;;6.20;98.00;;;;;;6241895;23;20011;-71
2024/03/05 05:29:56;;;;;;;19.70;12.45;;;6.30;98.00;;;;;;6241186;23;20392;-71
2024/03/05 05:32:42;;;;;;;23.25;14.13;;;6.20;98.00;;;;;;6241787;23;20396;-71
2024/03/05 05:35:28;;;;;;;19.55;11.63;;;6.20;98.00;;;;;;6240669;23;20043;-62
2024/03/05 05:38:14;;;;;;;17.77;12.10;;;6.10;98.10;;;;;;6243761;23;20019;-61
2024/03/05 05:41:00;;;;;;;18.45;12.68;;;6.10;98.10;;;;;;6239964;23;20015;-60
2024/03/05 05:43:46;;;;;;;21.98;12.52;;;6.00;98.10;;;;;;6240594;23;20166;-61
2024/03/05 05:46:33;;;;;;;22.42;12.15;;;6.10;98.20;;;;;;6241298;23;20336;-61
2024/03/05 05:49:23;;;;;;;22.88;12.68;;;6.00;98.20;;;;;;6241597;23;20436;-61
2024/03/05 05:52:09;;;;;;;21.17;12.63;;;5.90;98.20;;;;;;6241140;23;20008;-72
2024/03/05 05:54:55;;;;;;;20.60;13.05;;;5.90;98.40;;;;;;6240647;23;20058;-70
2024/03/05 05:57:46;;;;;;;18.88;12.05;;;5.90;98.20;;;;;;6240119;23;20004;-72
2024/03/05 06:00:32;;;;;;;24.75;12.40;;;5.90;98.30;;;;;;6238216;23;20016;-73
2024/03/05 06:03:18;;;;;;;19.85;11.90;;;6.00;98.30;;;;;;6247478;23;20024;-72
2024/03/05 06:06:06;;;;;;;22.98;12.98;;;5.90;98.30;;;;;;6251288;23;20029;-72
2024/03/05 06:08:52;;;;;;;23.80;13.20;;;6.00;98.40;;;;;;6247450;23;20079;-73
2024/03/05 06:11:38;;;;;;;26.98;12.73;;;5.90;98.40;;;;;;6241121;23;20012;-73
2024/03/05 06:14:24;;;;;;;18.08;12.60;;;5.90;98.40;;;;;;6240167;23;20078;-74
2024/03/05 06:17:10;;;;;;;24.70;12.60;;;5.90;98.40;;;;;;6241837;23;20004;-74
2024/03/05 06:19:56;;;;;;;19.20;12.35;;;6.00;98.50;;;;;;6242563;23;20051;-73
2024/03/05 06:22:45;;;;;;;21.38;12.85;;;5.90;98.40;;;;;;6241186;23;20016;-73
2024/03/05 06:25:32;;;;;;;18.77;13.73;;;5.90;98.50;;;;;;6239474;23;20008;-73
2024/03/05 06:28:19;;;;;;;25.20;11.80;;;5.90;98.50;;;;;;6241465;23;20094;-74
2024/03/05 06:31:05;;;;;;;20.63;12.73;;;5.90;98.50;;;;;;6241984;23;20083;-75
2024/03/05 06:33:51;;;;;;;19.60;12.45;;;5.90;98.50;;;;;;6245318;22;20016;-59
2024/03/05 07:56:14;;;;;;;23.65;13.15;;;5.60;99.10;;;;;;6224004;23;20028;-59
2024/03/05 07:59:00;;;;;;;18.33;11.50;;;5.70;99.10;;;;;;6211112;23;20104;-72
2024/03/05 08:01:46;;;;;;;19.00;10.98;;;5.70;99.10;;;;;;6210420;23;20626;-72
2024/03/05 08:04:32;;;;;;;20.10;11.27;;;5.70;99.10;;;;;;6206087;23;20017;-77
2024/03/05 08:07:18;;;;;;;20.75;12.25;;;5.70;99.20;;;;;;6210402;23;20078;-74
2024/03/05 08:10:09;;;;;;;18.00;12.45;;;5.70;99.20;;;;;;6210151;23;20009;-68
2024/03/05 08:12:55;;;;;;;26.23;12.45;;;5.70;99.30;;;;;;6209832;23;20004;-73
2024/03/05 08:15:41;;;;;;;20.85;11.55;;;5.70;99.20;;;;;;6210881;23;20372;-73
2024/03/05 08:18:27;;;;;;;21.95;12.43;;;5.80;99.30;;;;;;6209089;23;20425;-73
2024/03/05 08:21:13;;;;;;;20.00;11.18;;;5.90;99.50;;;;;;6207851;23;20012;-74
2024/03/05 08:24:01;;;;;;;21.90;12.13;;;6.00;99.30;;;;;;6209396;23;20457;-73
2024/03/05 08:26:49;;;;;;;21.58;12.43;;;6.00;99.20;;;;;;6207798;23;20497;-71
2024/03/05 08:29:39;;;;;;;20.38;13.35;;;5.90;99.20;;;;;;6207061;23;20013;-74
2024/03/05 08:32:25;;;;;;;22.58;13.23;;;5.90;99.20;;;;;;6211694;23;20015;-74
2024/03/05 08:35:11;;;;;;;22.42;13.15;;;6.00;99.20;;;;;;6209426;23;20012;-75
2024/03/05 08:37:59;;;;;;;22.15;12.27;;;6.10;99.20;;;;;;6209604;23;20039;-75
2024/03/05 08:40:46;;;;;;;21.20;11.73;;;6.10;99.20;;;;;;6211083;23;20013;-73
2024/03/05 08:43:31;;;;;;;20.58;12.23;;;6.10;99.20;;;;;;6210134;23;20380;-75
2024/03/05 08:46:17;;;;;;;16.92;11.32;;;6.20;99.20;;;;;;6205105;23;20102;-75
2024/03/05 08:49:06;;;;;;;23.00;12.90;;;6.30;99.20;;;;;;6210172;23;20030;-73
2024/03/05 08:51:53;;;;;;;20.38;13.27;;;6.40;99.20;;;;;;6212230;23;20363;-76
2024/03/05 08:54:39;;;;;;;21.67;13.27;;;6.40;99.00;;;;;;6208807;23;20017;-74
2024/03/05 08:57:26;;;;;;;22.05;13.48;;;6.50;99.00;;;;;;6241024;22;20027;-73
2024/03/05 09:00:17;;;;;;;22.27;13.02;;;6.50;99.00;;;;;;6269475;22;20011;-74
2024/03/05 09:03:03;;;;;;;25.10;13.32;;;6.50;98.90;;;;;;6270332;22;20015;-74
2024/03/05 09:05:49;;;;;;;23.63;14.88;;;6.60;98.90;;;;;;6269637;22;20008;-74
2024/03/05 09:08:37;;;;;;;26.52;13.20;;;6.60;98.80;;;;;;6268754;22;20344;-74
2024/03/05 09:11:23;;;;;;;20.20;13.70;;;6.60;98.80;;;;;;6270781;22;20010;-74
2024/03/05 09:14:09;;;;;;;24.05;13.18;;;6.70;98.80;;;;;;6270404;22;20018;-74
2024/03/05 09:16:55;;;;;;;20.45;12.63;;;6.70;98.70;;;;;;6269341;22;20031;-75
2024/03/05 09:19:44;;;;;;;24.42;13.30;;;6.90;98.70;;;;;;6270287;22;20015;-75
2024/03/05 09:22:30;;;;;;;28.50;12.57;;;6.80;98.60;;;;;;6277706;22;20008;-74
2024/03/05 09:25:17;;;;;;;20.15;12.90;;;6.80;98.60;;;;;;6284050;22;20016;-71
2024/03/05 09:28:04;;;;;;;18.05;12.70;;;6.90;98.60;;;;;;6273402;22;20004;-74
2024/03/05 09:30:50;;;;;;;18.73;12.60;;;6.90;98.50;;;;;;6269524;22;20007;-74
2024/03/05 09:33:36;;;;;;;22.52;12.90;;;7.00;98.50;;;;;;6271964;22;20463;-73
2024/03/05 09:36:23;;;;;;;20.65;11.90;;;7.00;98.40;;;;;;6270159;22;20035;-72
2024/03/05 09:39:09;;;;;;;28.77;12.88;;;7.10;98.40;;;;;;6269780;22;20008;-74
2024/03/05 09:41:55;;;;;;;18.15;12.60;;;7.10;98.20;;;;;;6270423;22;20014;-75
2024/03/05 09:44:41;;;;;;;16.17;11.73;;;7.20;98.10;;;;;;6268923;22;20015;-74
2024/03/05 09:47:27;;;;;;;18.67;11.45;;;7.20;98.10;;;;;;6269489;22;20091;-75
2024/03/05 09:50:13;;;;;;;16.52;11.18;;;7.20;98.10;;;;;;6270128;22;20004;-76
2024/03/05 09:53:00;;;;;;;22.80;11.35;;;7.30;98.20;;;;;;6271736;22;20019;-74
2024/03/05 09:55:51;;;;;;;17.98;12.10;;;7.30;98.00;;;;;;6271434;22;20008;-70
2024/03/05 09:58:39;;;;;;;20.02;12.02;;;7.40;98.10;;;;;;6270101;22;20030;-70
2024/03/05 10:01:25;;;;;;;19.48;12.68;;;7.50;98.20;;;;;;6270316;22;20018;-68
2024/03/05 10:04:13;;;;;;;16.70;11.00;;;7.60;98.10;;;;;;6267383;22;20552;-66
2024/03/05 10:06:58;;;;;;;18.95;11.45;;;7.70;97.90;;;;;;6269547;22;20083;-69
2024/03/05 10:09:45;;;;;;;16.38;10.63;;;7.70;97.70;;;;;;6270688;22;20015;-69
2024/03/05 10:12:31;;;;;;;18.70;10.43;;;7.80;97.70;;;;;;6272983;22;20326;-68
2024/03/05 10:15:24;;;;;;;16.65;11.13;;;7.90;97.50;;;;;;6270561;22;20018;-67
2024/03/05 10:18:11;;;;;;;14.88;10.15;;;8.00;97.10;;;;;;6272059;22;20083;-68
2024/03/05 10:21:18;;;;;;;15.50;10.25;;;8.00;97.10;;;;;;6270116;22;20039;-68
2024/03/05 10:24:08;;;;;;;17.88;10.52;;;8.20;97.00;;;;;;6269722;22;20026;-68
2024/03/05 10:26:54;;;;;;;14.10;10.48;;;8.20;96.40;;;;;;6273986;22;20004;-69
2024/03/05 10:29:40;;;;;;;17.00;10.60;;;8.10;96.20;;;;;;6269290;22;20011;-69
2024/03/05 10:32:27;;;;;;;19.25;11.05;;;8.10;96.40;;;;;;6269396;22;20083;-69
2024/03/05 10:35:12;;;;;;;13.63;9.82;;;8.20;96.40;;;;;;6273054;22;20043;-70
2024/03/05 10:37:59;;;;;;;13.52;8.60;;;8.20;96.40;;;;;;6272155;22;20018;-70
2024/03/05 10:40:46;;;;;;;19.40;10.18;;;8.30;96.30;;;;;;6270406;22;20086;-69
2024/03/05 10:43:32;;;;;;;13.38;8.00;;;8.40;96.10;;;;;;6268794;22;20019;-69
2024/03/05 10:46:19;;;;;;;14.38;8.10;;;8.50;96.00;;;;;;6271342;22;20004;-69
2024/03/05 10:49:07;;;;;;;11.40;7.85;;;8.60;96.00;;;;;;6270621;22;20141;-69
2024/03/05 10:51:55;;;;;;;17.50;8.50;;;8.70;95.90;;;;;;6271367;22;20433;-69
2024/03/05 10:54:45;;;;;;;15.00;7.35;;;8.80;95.80;;;;;;6270172;22;20170;-68
2024/03/05 10:57:31;;;;;;;10.45;5.68;;;9.00;95.90;;;;;;6271343;22;20054;-69
2024/03/05 11:00:17;;;;;;;11.02;6.78;;;9.00;94.70;;;;;;6269968;22;20012;-69
2024/03/05 11:03:08;;;;;;;12.70;6.63;;;8.90;94.50;;;;;;6270794;22;20022;-70
2024/03/05 11:05:56;;;;;;;14.73;6.78;;;9.00;94.30;;;;;;6272207;22;20428;-68
2024/03/05 11:08:43;;;;;;;15.02;7.35;;;9.00;94.30;;;;;;6271476;22;20015;-69
2024/03/05 11:11:30;;;;;;;10.10;5.60;;;9.00;93.90;;;;;;6270642;22;20313;-72
2024/03/05 11:14:17;;;;;;;10.52;6.22;;;9.00;93.80;;;;;;6268634;22;20043;-71
2024/03/05 11:17:04;;;;;;;12.32;5.95;;;9.00;93.40;;;;;;6271895;22;20008;-70
2024/03/05 11:19:50;;;;;;;11.73;5.68;;;9.00;93.10;;;;;;6269126;22;20039;-70
2024/03/05 11:22:43;;;;;;;7.97;4.82;;;9.00;92.90;;;;;;6271226;22;20039;-70
2024/03/05 11:25:32;;;;;;;11.95;5.82;;;9.10;92.90;;;;;;6272109;22;20332;-71
2024/03/05 11:28:20;;;;;;;12.50;6.20;;;9.10;92.80;;;;;;6272809;22;20008;-68
2024/03/05 11:31:27;;;;;;;12.23;5.63;;;9.20;93.00;;;;;;6271554;22;20065;-68
2024/03/05 11:34:16;;;;;;;9.25;6.32;;;9.30;93.00;;;;;;6273110;22;20403;-69
2024/03/05 11:37:07;;;;;;;8.52;6.07;;;9.30;92.90;;;;;;6270613;22;20087;-67
2024/03/05 11:39:53;;;;;;;9.60;5.97;;;9.30;92.80;;;;;;6274075;22;20085;-66
2024/03/05 11:42:47;;;;;;;10.43;6.10;;;9.40;92.90;;;;;;6266587;22;20022;-69
2024/03/05 11:45:46;;;;;;;11.90;6.82;;;9.50;92.70;;;;;;6270656;22;20439;-69
2024/03/05 11:48:33;;;;;;;11.02;6.70;;;9.60;92.60;;;;;;6270694;22;20318;-69
2024/03/05 11:51:19;;;;;;;17.33;7.20;;;9.60;92.60;;;;;;6269575;22;20448;-67
2024/03/05 11:54:06;;;;;;;10.02;6.57;;;9.50;92.00;;;;;;6270067;22;20344;-67
2024/03/05 11:57:00;;;;;;;9.98;6.57;;;9.40;92.20;;;;;;6270160;22;20448;-71
2024/03/05 11:59:48;;;;;;;12.57;7.35;;;9.50;92.20;;;;;;6269238;22;20091;-70
2024/03/05 12:02:34;;;;;;;10.63;6.45;;;9.40;91.90;;;;;;6268333;22;20201;-58
2024/03/05 12:05:21;;;;;;;9.43;6.25;;;9.30;91.90;;;;;;6270672;22;20018;-58
2024/03/05 12:08:07;;;;;;;10.95;6.95;;;9.20;91.80;;;;;;6270463;22;20423;-58
2024/03/05 12:11:01;;;;;;;15.73;6.55;;;9.10;91.80;;;;;;6270146;22;20011;-56
2024/03/05 12:13:47;;;;;;;11.02;6.65;;;9.00;91.80;;;;;;6270491;22;20042;-59
2024/03/05 12:16:33;;;;;;;7.63;5.95;;;8.90;91.70;;;;;;6269147;22;20045;-58
2024/03/05 12:19:19;;;;;;;11.60;5.72;;;8.90;91.80;;;;;;6269444;22;20094;-59
2024/03/05 12:22:07;;;;;;;9.90;5.60;;;8.90;91.80;;;;;;6271782;22;20210;-58
2024/03/05 12:24:53;;;;;;;9.70;5.43;;;8.80;91.60;;;;;;6270154;22;20037;-59
2024/03/05 12:27:39;;;;;;;8.70;5.97;;;8.90;91.50;;;;;;6269682;22;20459;-58
2024/03/05 12:30:30;;;;;;;12.65;5.93;;;8.90;91.40;;;;;;6271049;22;20345;-57
2024/03/05 12:33:20;;;;;;;9.93;5.60;;;9.00;91.30;;;;;;6269078;22;20007;-56
2024/03/05 12:36:07;;;;;;;13.43;6.97;;;9.00;91.30;;;;;;6269176;22;20012;-59
2024/03/05 12:38:56;;;;;;;10.65;6.15;;;9.10;91.30;;;;;;6271309;22;20003;-57
2024/03/05 12:41:43;;;;;;;9.00;5.80;;;9.20;91.30;;;;;;6270076;22;20340;-57
2024/03/05 12:44:30;;;;;;;13.63;6.38;;;9.20;91.20;;;;;;6270149;22;20106;-58
2024/03/05 12:47:18;;;;;;;10.82;5.97;;;9.20;90.70;;;;;;6269786;22;20429;-56
2024/03/05 12:50:06;;;;;;;12.70;6.63;;;9.10;90.80;;;;;;6271309;22;20379;-57
2024/03/05 12:53:09;;;;;;;10.80;5.57;;;9.10;90.60;;;;;;6268903;22;20441;-57
2024/03/05 12:56:02;;;;;;;11.38;5.82;;;9.00;89.50;;;;;;6270786;22;20069;-56
2024/03/05 12:58:48;;;;;;;7.38;5.20;;;8.90;89.10;;;;;;6270013;22;20016;-59
2024/03/05 13:01:37;;;;;;;15.90;5.93;;;8.90;89.50;;;;;;6270341;22;20011;-58
2024/03/05 13:04:24;;;;;;;10.05;5.75;;;8.90;89.50;;;;;;6269463;22;20023;-58
2024/03/05 13:07:11;;;;;;;8.05;5.35;;;8.90;89.30;;;;;;6270801;22;20346;-55
2024/03/05 13:09:59;;;;;;;7.22;4.95;;;9.00;89.70;;;;;;6269660;22;20356;-57
2024/03/05 13:12:45;;;;;;;9.65;4.68;;;9.00;89.80;;;;;;6269648;22;20360;-57
2024/03/05 13:15:31;;;;;;;11.20;5.75;;;9.10;89.60;;;;;;6268634;22;20313;-57
2024/03/05 13:18:16;;;;;;;8.75;5.47;;;9.20;88.30;;;;;;6270599;22;20317;-55
2024/03/05 13:21:05;;;;;;;12.70;5.90;;;9.10;88.00;;;;;;6269646;22;20429;-58
2024/03/05 13:23:51;;;;;;;10.52;5.22;;;9.20;88.50;;;;;;6272037;22;20019;-58
2024/03/05 13:26:41;;;;;;;12.48;4.90;;;9.30;87.70;;;;;;6270740;22;20007;-59
2024/03/05 13:29:27;;;;;;;10.73;6.72;;;9.40;87.30;;;;;;6268926;22;20004;-59
2024/03/05 13:32:13;;;;;;;11.98;6.38;;;9.40;88.10;;;;;;6271511;22;20086;-59
2024/03/05 13:34:59;;;;;;;10.32;6.72;;;9.40;88.40;;;;;;6270368;22;20012;-58
2024/03/05 13:37:47;;;;;;;8.77;5.65;;;9.30;88.30;;;;;;6270949;22;20004;-58
2024/03/05 13:40:34;;;;;;;8.90;6.03;;;9.40;88.90;;;;;;6271508;22;20007;-58
2024/03/05 13:43:22;;;;;;;10.80;7.40;;;9.40;88.40;;;;;;6270319;22;20091;-59
2024/03/05 13:46:11;;;;;;;13.18;6.05;;;9.30;88.10;;;;;;6271393;22;20007;-57
2024/03/05 13:48:58;;;;;;;12.00;6.85;;;9.20;88.40;;;;;;6272134;22;20404;-58
2024/03/05 13:51:44;;;;;;;11.15;6.55;;;9.20;88.30;;;;;;6269693;22;20007;-57
2024/03/05 13:54:30;;;;;;;10.63;6.35;;;9.10;88.20;;;;;;6270239;22;20043;-58
2024/03/05 13:57:16;;;;;;;9.55;6.25;;;9.10;88.40;;;;;;6269469;22;20016;-58
2024/03/05 14:00:05;;;;;;;9.73;6.22;;;9.10;88.40;;;;;;6272170;22;20499;-58
2024/03/05 14:02:54;;;;;;;9.98;6.07;;;9.10;88.30;;;;;;6268512;22;20460;-58
2024/03/05 14:05:40;;;;;;;10.00;6.15;;;9.00;87.00;;;;;;6269788;22;20441;-57
2024/03/05 14:08:28;;;;;;;8.50;5.80;;;8.90;87.20;;;;;;6270197;22;20058;-58
2024/03/05 14:11:17;;;;;;;8.95;6.30;;;8.90;87.00;;;;;;6269545;22;20083;-58
2024/03/05 14:14:03;;;;;;;11.45;7.25;;;8.80;87.00;;;;;;6269473;22;20015;-58
2024/03/05 14:16:49;;;;;;;14.27;8.00;;;8.80;87.50;;;;;;6269390;22;20015;-54
2024/03/05 14:19:38;;;;;;;10.35;6.47;;;8.80;88.00;;;;;;6270446;22;20008;-58
2024/03/05 14:22:24;;;;;;;10.15;7.28;;;8.70;88.30;;;;;;6269169;22;20102;-59
2024/03/05 14:25:09;;;;;;;14.35;7.68;;;8.70;88.50;;;;;;6269749;22;20453;-58
2024/03/05 14:27:56;;;;;;;9.95;6.72;;;8.60;88.50;;;;;;6269894;22;20318;-58
2024/03/05 14:30:42;;;;;;;8.95;6.90;;;8.60;88.60;;;;;;6269947;22;20054;-57
2024/03/05 14:33:28;;;;;;;12.07;7.63;;;8.50;89.00;;;;;;6269426;22;20012;-58
2024/03/05 14:36:15;;;;;;;12.05;7.10;;;8.60;89.10;;;;;;6267684;22;20007;-59
2024/03/05 14:39:03;;;;;;;10.68;6.47;;;8.60;89.20;;;;;;6269755;22;20496;-57
2024/03/05 14:41:49;;;;;;;10.90;6.68;;;8.80;89.30;;;;;;6270889;22;20322;-58
2024/03/05 14:44:36;;;;;;;8.90;6.15;;;8.90;89.30;;;;;;6271329;22;20020;-58
2024/03/05 14:47:22;;;;;;;9.57;6.95;;;9.00;89.20;;;;;;6269815;22;20061;-57
2024/03/05 14:50:08;;;;;;;9.25;6.82;;;9.10;88.90;;;;;;6270889;22;20007;-57
2024/03/05 14:52:54;;;;;;;9.70;6.78;;;9.10;88.50;;;;;;6248258;22;20041;-56
2024/03/05 14:55:40;;;;;;;13.82;7.50;;;9.10;88.50;;;;;;6270648;22;20402;-57
2024/03/05 14:58:27;;;;;;;12.25;7.25;;;9.10;88.30;;;;;;6270566;22;20094;-58
2024/03/05 15:01:13;;;;;;;8.50;6.43;;;9.00;88.20;;;;;;6272907;22;20428;-58
2024/03/05 15:04:00;;;;;;;9.27;6.53;;;9.00;88.40;;;;;;6272104;22;20082;-70
2024/03/05 15:06:46;;;;;;;10.35;6.95;;;8.90;88.40;;;;;;6273358;22;20011;-72
2024/03/05 15:09:32;;;;;;;13.45;7.85;;;8.90;88.40;;;;;;6249834;22;20015;-72
2024/03/05 15:12:19;;;;;;;11.70;7.38;;;8.80;88.30;;;;;;6249020;22;20095;-72
2024/03/05 15:15:05;;;;;;;9.68;7.22;;;8.70;88.60;;;;;;6272212;22;20471;-72
2024/03/05 15:17:51;;;;;;;12.32;7.15;;;8.70;88.60;;;;;;6270015;22;20008;-73
2024/03/05 15:20:38;;;;;;;11.43;7.18;;;8.70;88.60;;;;;;6269738;22;20082;-73
2024/03/05 15:23:24;;;;;;;10.05;6.78;;;8.70;88.60;;;;;;6271831;22;20499;-71
2024/03/05 15:26:10;;;;;;;9.55;7.35;;;8.60;88.30;;;;;;6270946;22;20014;-71
2024/03/05 15:28:58;;;;;;;10.85;6.93;;;8.60;88.60;;;;;;6269864;22;20073;-70
2024/03/05 15:31:45;;;;;;;11.85;7.55;;;8.60;88.10;;;;;;6248124;22;20061;-75
2024/03/05 15:34:31;;;;;;;10.80;7.45;;;8.50;88.00;;;;;;6270385;22;20510;-75
2024/03/05 15:37:17;;;;;;;10.35;7.50;;;8.50;88.50;;;;;;6270430;22;20691;-75
2024/03/05 15:40:14;;;;;;;13.60;7.35;;;8.50;88.60;;;;;;6271661;22;20113;-77
2024/03/05 15:43:03;;;;;;;10.20;7.15;;;8.60;88.60;;;;;;6271870;22;20019;-75